createdAt,value
2022-09-12T00:02:46.239Z,86.70
2022-09-12T00:06:13.538Z,86.21
2022-09-12T00:09:35.227Z,86.18
2022-09-12T00:12:56.782Z,85.82
2022-09-12T00:16:20.446Z,86.02
2022-09-12T00:19:43.329Z,85.40
2022-09-12T00:23:04.655Z,85.99
2022-09-12T00:26:26.832Z,85.60
2022-09-12T00:29:48.448Z,85.54
2022-09-12T00:33:10.562Z,84.93
2022-09-12T00:36:33.461Z,85.31
2022-09-12T00:39:55.278Z,85.51
2022-09-12T00:43:36.806Z,85.62
2022-09-12T00:47:02.067Z,85.38
2022-09-12T00:50:23.564Z,85.15
2022-09-12T00:53:49.735Z,85.03
2022-09-12T00:57:14.697Z,84.91
2022-09-12T01:00:36.277Z,84.90
2022-09-12T01:03:58.290Z,85.35
2022-09-12T01:07:20.817Z,85.31
2022-09-12T01:10:43.970Z,85.34
2022-09-12T01:14:05.936Z,85.49
2022-09-12T01:17:33.714Z,85.54
2022-09-12T01:21:12.046Z,85.82
2022-09-12T01:25:00.715Z,85.92
2022-09-12T01:28:49.912Z,86.19
2022-09-12T01:32:19.561Z,86.28
2022-09-12T01:35:49.121Z,86.91
2022-09-12T01:39:20.277Z,87.90
2022-09-12T01:42:52.928Z,87.92
2022-09-12T01:46:18.517Z,88.26
2022-09-12T01:49:48.596Z,88.39
2022-09-12T01:53:15.699Z,88.52
2022-09-12T01:56:41.332Z,88.66
2022-09-12T02:00:07.319Z,88.51
2022-09-12T02:03:41.702Z,87.94
2022-09-12T02:07:11.958Z,88.28
2022-09-12T02:10:41.453Z,88.78
2022-09-12T02:14:07.818Z,89.03
2022-09-12T02:17:31.922Z,88.90
2022-09-12T02:20:54.448Z,88.75
2022-09-12T02:24:19.104Z,89.19
2022-09-12T02:27:45.857Z,88.95
2022-09-12T02:31:15.326Z,89.26
2022-09-12T02:34:49.420Z,89.46
2022-09-12T02:38:15.786Z,89.50
2022-09-12T02:41:39.306Z,89.82
2022-09-12T02:45:01.143Z,89.28
2022-09-12T02:48:28.292Z,89.51
2022-09-12T02:51:50.654Z,89.52
2022-09-12T02:55:13.030Z,88.59
2022-09-12T02:58:36.403Z,88.58
2022-09-12T03:02:13.404Z,88.72
2022-09-12T03:05:38.977Z,88.68
2022-09-12T03:09:11.543Z,87.93
2022-09-12T03:12:46.694Z,87.75
2022-09-12T03:16:19.211Z,87.65
2022-09-12T03:19:53.762Z,87.47
2022-09-12T03:23:25.024Z,88.09
2022-09-12T03:26:51.174Z,87.81
2022-09-12T03:30:13.735Z,87.64
2022-09-12T03:33:36.855Z,87.68
2022-09-12T03:36:58.794Z,87.79
2022-09-12T03:40:20.819Z,87.98
2022-09-12T03:43:42.820Z,87.84
2022-09-12T03:47:08.096Z,88.03
2022-09-12T03:50:34.952Z,88.23
2022-09-12T03:53:56.981Z,88.00
2022-09-12T03:57:19.149Z,87.89
2022-09-12T04:00:42.819Z,87.39
2022-09-12T04:04:04.463Z,87.59
2022-09-12T04:07:27.666Z,87.67
2022-09-12T04:10:49.352Z,87.39
2022-09-12T04:14:10.930Z,87.36
2022-09-12T04:17:32.663Z,87.44
2022-09-12T04:20:54.636Z,87.38
2022-09-12T04:24:17.581Z,87.55
2022-09-12T04:27:39.182Z,87.38
2022-09-12T04:31:03.459Z,87.69
2022-09-12T04:34:25.138Z,87.61
2022-09-12T04:37:46.902Z,88.12
2022-09-12T04:41:14.201Z,87.62
2022-09-12T04:44:35.638Z,87.54
2022-09-12T04:47:57.330Z,87.65
2022-09-12T04:51:22.090Z,87.72
2022-09-12T04:54:43.952Z,88.43
2022-09-12T04:58:06.733Z,87.95
2022-09-12T05:01:30.082Z,88.25
2022-09-12T05:04:52.628Z,88.40
2022-09-12T05:08:14.576Z,88.83
2022-09-12T05:12:03.837Z,89.12
2022-09-12T05:15:23.227Z,89.23
2022-09-12T05:18:46.768Z,89.37
2022-09-12T05:22:09.767Z,89.91
2022-09-12T05:25:31.858Z,90.29
2022-09-12T05:28:53.891Z,90.79
2022-09-12T05:32:17.032Z,91.45
2022-09-12T05:35:39.091Z,91.65
2022-09-12T05:39:01.737Z,92.24
2022-09-12T05:42:23.504Z,92.53
2022-09-12T05:45:45.101Z,92.71
2022-09-12T05:49:11.380Z,92.90
2022-09-12T05:52:33.521Z,92.88
2022-09-12T05:56:03.683Z,93.18
2022-09-12T05:59:25.422Z,93.64
2022-09-12T06:02:53.278Z,93.42
2022-09-12T06:06:18.740Z,93.34
2022-09-12T06:09:40.497Z,92.86
2022-09-12T06:13:03.930Z,92.35
2022-09-12T06:16:28.200Z,91.74
2022-09-12T06:19:50.150Z,90.93
2022-09-12T06:23:13.744Z,90.97
2022-09-12T06:26:36.005Z,91.30
2022-09-12T06:29:58.013Z,90.74
2022-09-12T06:33:20.805Z,90.93
2022-09-12T06:36:44.390Z,91.33
2022-09-12T06:40:10.176Z,91.69
2022-09-12T06:43:32.591Z,92.49
2022-09-12T06:46:54.495Z,92.84
2022-09-12T06:50:16.389Z,93.06
2022-09-12T06:53:38.575Z,92.69
2022-09-12T06:57:02.071Z,92.94
2022-09-12T07:00:23.803Z,92.71
2022-09-12T07:03:49.949Z,92.77
2022-09-12T07:07:12.113Z,92.46
2022-09-12T07:10:34.419Z,92.03
2022-09-12T07:13:58.826Z,91.77
2022-09-12T07:17:20.442Z,92.00
2022-09-12T07:20:42.834Z,91.41
2022-09-12T07:24:04.881Z,90.63
2022-09-12T07:27:26.931Z,91.21
2022-09-12T07:30:50.333Z,90.26
2022-09-12T07:34:12.931Z,90.21
2022-09-12T07:37:34.662Z,90.00
2022-09-12T07:40:57.023Z,90.75
2022-09-12T07:44:18.928Z,91.51
2022-09-12T07:47:42.119Z,91.10
2022-09-12T07:51:07.416Z,90.96
2022-09-12T07:54:28.926Z,90.67
2022-09-12T07:57:51.039Z,90.72
2022-09-12T08:01:14.403Z,90.89
2022-09-12T08:04:37.330Z,90.86
2022-09-12T08:07:59.153Z,91.23
2022-09-12T08:11:22.523Z,90.72
2022-09-12T08:14:43.970Z,90.54
2022-09-12T08:18:06.014Z,91.13
2022-09-12T08:21:31.526Z,90.24
2022-09-12T08:24:53.645Z,89.77
2022-09-12T08:28:15.535Z,90.10
2022-09-12T08:31:37.463Z,90.19
2022-09-12T08:34:59.475Z,89.74
2022-09-12T08:38:23.753Z,90.34
2022-09-12T08:41:46.826Z,90.51
2022-09-12T08:45:18.958Z,88.66
2022-09-12T08:48:42.221Z,85.19
2022-09-12T08:52:09.291Z,83.60
2022-09-12T08:55:36.022Z,82.59
2022-09-12T08:58:58.093Z,82.03
2022-09-12T09:02:51.282Z,79.84
2022-09-12T09:06:26.833Z,78.52
2022-09-12T09:10:02.062Z,78.69
2022-09-12T09:13:51.969Z,79.80
2022-09-12T09:17:20.214Z,80.07
2022-09-12T09:20:48.018Z,77.61
2022-09-12T09:24:14.141Z,78.38
2022-09-12T09:27:41.729Z,76.63
2022-09-12T09:31:05.069Z,75.70
2022-09-12T09:34:31.473Z,75.66
2022-09-12T09:38:02.795Z,74.16
2022-09-12T09:41:36.550Z,73.19
2022-09-12T09:45:01.865Z,72.68
2022-09-12T09:48:29.087Z,72.92
2022-09-12T09:51:51.022Z,74.81
2022-09-12T09:55:17.911Z,74.32
2022-09-12T09:58:41.062Z,72.86
2022-09-12T10:02:23.806Z,72.21
2022-09-12T10:05:50.030Z,72.45
2022-09-12T10:09:27.117Z,71.24
2022-09-12T10:12:48.753Z,70.20
2022-09-12T10:16:20.775Z,69.88
2022-09-12T10:19:42.526Z,69.59
2022-09-12T10:23:29.493Z,68.15
2022-09-12T10:26:57.049Z,66.21
2022-09-12T10:30:21.933Z,66.64
2022-09-12T10:33:47.329Z,66.40
2022-09-12T10:37:11.879Z,63.87
2022-09-12T10:40:40.245Z,65.30
2022-09-12T10:44:09.590Z,61.72
2022-09-12T10:47:32.694Z,63.22
2022-09-12T10:50:54.311Z,62.28
2022-09-12T10:54:18.197Z,62.79
2022-09-12T10:58:27.240Z,62.23
2022-09-12T11:02:01.084Z,62.21
2022-09-12T11:05:46.776Z,63.45
2022-09-12T11:09:14.395Z,64.18
2022-09-12T11:12:44.725Z,63.22
2022-09-12T11:16:17.147Z,63.78
2022-09-12T11:19:51.980Z,63.24
2022-09-12T11:23:33.521Z,63.89
2022-09-12T11:27:06.502Z,64.03
2022-09-12T11:30:37.463Z,64.44
2022-09-12T11:34:02.402Z,63.90
2022-09-12T11:37:43.666Z,62.84
2022-09-12T11:41:08.436Z,61.44
2022-09-12T11:44:40.271Z,60.68
2022-09-12T11:48:08.309Z,60.84
2022-09-12T11:51:36.849Z,61.44
2022-09-12T11:55:03.829Z,60.14
2022-09-12T11:58:29.238Z,60.50
2022-09-12T12:01:54.799Z,59.91
2022-09-12T12:05:21.546Z,58.99
2022-09-12T12:08:45.895Z,58.33
2022-09-12T12:12:16.686Z,57.83
2022-09-12T12:15:40.425Z,57.41
2022-09-12T12:19:08.736Z,58.54
2022-09-12T12:22:32.610Z,58.14
2022-09-12T12:25:56.095Z,59.58
2022-09-12T12:29:43.388Z,61.08
2022-09-12T12:33:46.067Z,61.02
2022-09-12T12:37:41.034Z,56.03
2022-09-12T12:41:40.630Z,57.51
2022-09-12T12:45:05.397Z,60.03
2022-09-12T12:48:27.646Z,61.33
2022-09-12T12:51:57.672Z,61.68
2022-09-12T12:55:26.382Z,61.17
2022-09-12T12:58:48.327Z,63.08
2022-09-12T13:02:22.539Z,62.22
2022-09-12T13:05:48.002Z,61.21
2022-09-12T13:09:21.864Z,62.57
2022-09-12T13:12:49.293Z,62.52
2022-09-12T13:16:12.630Z,63.22
2022-09-12T13:19:38.429Z,61.72
2022-09-12T13:23:00.478Z,62.49
2022-09-12T13:26:25.188Z,61.40
2022-09-12T13:29:47.193Z,60.32
2022-09-12T13:33:22.038Z,58.13
2022-09-12T13:37:09.847Z,54.60
2022-09-12T13:40:36.869Z,53.66
2022-09-12T13:43:59.880Z,55.07
2022-09-12T13:47:30.039Z,55.18
2022-09-12T13:50:54.870Z,54.25
2022-09-12T13:54:24.314Z,55.58
2022-09-12T13:57:46.324Z,53.13
2022-09-12T14:01:13.567Z,54.52
2022-09-12T14:04:57.410Z,55.71
2022-09-12T14:08:20.399Z,55.19
2022-09-12T14:11:44.093Z,54.07
2022-09-12T14:15:09.565Z,51.62
2022-09-12T14:18:36.489Z,52.09
2022-09-12T14:21:59.059Z,54.34
2022-09-12T14:25:23.433Z,52.52
2022-09-12T14:28:48.219Z,51.22
2022-09-12T14:32:22.642Z,55.12
2022-09-12T14:35:50.157Z,53.15
2022-09-12T14:39:25.917Z,51.56
2022-09-12T14:42:50.641Z,52.91
2022-09-12T14:46:20.805Z,53.98
2022-09-12T14:49:43.312Z,55.41
2022-09-12T14:53:07.254Z,54.24
2022-09-12T14:56:42.718Z,57.09
2022-09-12T15:00:22.232Z,57.41
2022-09-12T15:03:53.876Z,58.27
2022-09-12T15:07:16.627Z,56.38
2022-09-12T15:10:39.821Z,54.42
2022-09-12T15:14:08.274Z,55.82
2022-09-12T15:17:30.249Z,56.46
2022-09-12T15:20:56.582Z,58.02
2022-09-12T15:24:18.433Z,58.27
2022-09-12T15:27:40.857Z,59.33
2022-09-12T15:31:07.851Z,59.78
2022-09-12T15:34:29.513Z,61.30
2022-09-12T15:37:53.121Z,61.02
2022-09-12T15:41:17.018Z,62.19
2022-09-12T15:44:39.037Z,62.92
2022-09-12T15:48:01.050Z,63.53
2022-09-12T15:51:23.443Z,64.15
2022-09-12T15:54:46.370Z,65.29
2022-09-12T15:58:09.037Z,65.05
2022-09-12T16:01:30.925Z,65.64
2022-09-12T16:04:54.681Z,66.30
2022-09-12T16:08:16.286Z,66.53
2022-09-12T16:11:39.626Z,67.16
2022-09-12T16:15:02.290Z,66.86
2022-09-12T16:18:23.820Z,67.09
2022-09-12T16:21:45.593Z,68.22
2022-09-12T16:25:08.593Z,68.23
2022-09-12T16:28:33.267Z,68.52
2022-09-12T16:31:55.519Z,69.42
2022-09-12T16:35:17.343Z,69.44
2022-09-12T16:38:41.957Z,69.77
2022-09-12T16:42:04.356Z,69.74
2022-09-12T16:45:27.528Z,70.59
2022-09-12T16:48:52.723Z,70.78
2022-09-12T16:52:16.621Z,70.79
2022-09-12T16:55:38.330Z,71.10
2022-09-12T16:58:59.672Z,71.17
2022-09-12T17:02:22.363Z,71.42
2022-09-12T17:05:43.733Z,71.56
2022-09-12T17:09:06.451Z,72.21
2022-09-12T17:12:27.903Z,72.00
2022-09-12T17:15:49.698Z,71.86
2022-09-12T17:19:17.267Z,72.44
2022-09-12T17:22:38.826Z,72.61
2022-09-12T17:26:00.549Z,72.85
2022-09-12T17:29:22.398Z,72.34
2022-09-12T17:32:44.022Z,73.00
2022-09-12T17:36:09.283Z,73.89
2022-09-12T17:39:30.967Z,73.76
2022-09-12T17:42:52.748Z,74.14
2022-09-12T17:46:15.142Z,74.21
2022-09-12T17:49:37.810Z,74.51
2022-09-12T17:53:01.326Z,73.88
2022-09-12T17:56:23.627Z,74.29
2022-09-12T17:59:45.123Z,74.98
2022-09-12T18:03:05.555Z,75.45
2022-09-12T18:06:28.030Z,75.63
2022-09-12T18:09:51.831Z,75.66
2022-09-12T18:13:14.021Z,75.54
2022-09-12T18:16:36.190Z,75.89
2022-09-12T18:19:57.924Z,76.01
2022-09-12T18:23:19.643Z,76.08
2022-09-12T18:26:43.661Z,76.33
2022-09-12T18:30:20.639Z,76.91
2022-09-12T18:33:43.059Z,76.85
2022-09-12T18:37:05.347Z,77.05
2022-09-12T18:40:27.218Z,77.32
2022-09-12T18:43:54.629Z,77.86
2022-09-12T18:47:16.431Z,78.32
2022-09-12T18:50:37.707Z,78.83
2022-09-12T18:54:01.131Z,79.22
2022-09-12T18:57:23.383Z,79.17
2022-09-12T19:00:48.370Z,79.07
2022-09-12T19:04:13.074Z,79.62
2022-09-12T19:07:34.887Z,79.93
2022-09-12T19:10:57.867Z,80.05
2022-09-12T19:14:25.125Z,79.85
2022-09-12T19:17:48.442Z,80.31
2022-09-12T19:21:14.674Z,80.53
2022-09-12T19:24:36.652Z,80.14
2022-09-12T19:27:58.514Z,80.16
2022-09-12T19:31:21.730Z,80.32
2022-09-12T19:34:44.926Z,80.90
2022-09-12T19:38:06.770Z,81.39
2022-09-12T19:41:28.928Z,81.40
2022-09-12T19:44:55.606Z,81.63
2022-09-12T19:48:17.550Z,81.72
2022-09-12T19:51:41.199Z,81.95
2022-09-12T19:55:02.725Z,81.98
2022-09-12T19:58:24.674Z,82.09
2022-09-12T20:01:46.438Z,82.21
2022-09-12T20:05:09.039Z,81.60
2022-09-12T20:08:32.450Z,82.50
2022-09-12T20:11:54.065Z,82.19
2022-09-12T20:15:15.570Z,81.97
2022-09-12T20:18:37.516Z,82.02
2022-09-12T20:21:59.718Z,82.36
2022-09-12T20:25:22.654Z,82.86
2022-09-12T20:28:44.512Z,83.17
2022-09-12T20:32:06.376Z,83.56
2022-09-12T20:35:28.165Z,83.24
2022-09-12T20:38:51.614Z,83.21
2022-09-12T20:42:14.729Z,83.62
2022-09-12T20:45:41.354Z,83.87
2022-09-12T20:49:14.701Z,83.94
2022-09-12T20:52:36.866Z,83.63
2022-09-12T20:55:58.617Z,83.55
2022-09-12T20:59:21.855Z,84.26
2022-09-12T21:02:43.792Z,84.02
2022-09-12T21:06:06.356Z,83.99
2022-09-12T21:09:28.145Z,84.76
2022-09-12T21:12:50.101Z,84.62
2022-09-12T21:16:15.655Z,84.37
2022-09-12T21:19:39.354Z,84.33
2022-09-12T21:23:01.415Z,84.38
2022-09-12T21:26:22.967Z,84.44
2022-09-12T21:29:47.653Z,84.31
2022-09-12T21:33:12.761Z,84.37
2022-09-12T21:36:34.435Z,85.06
2022-09-12T21:39:56.478Z,84.81
2022-09-12T21:43:18.412Z,84.71
2022-09-12T21:46:40.501Z,85.08
2022-09-12T21:50:03.602Z,84.44
2022-09-12T21:53:25.292Z,84.55
2022-09-12T21:56:47.162Z,84.76
2022-09-12T22:00:13.053Z,84.95
2022-09-12T22:03:34.382Z,84.93
2022-09-12T22:06:57.550Z,85.32
2022-09-12T22:10:19.330Z,85.40
2022-09-12T22:13:43.743Z,85.55
2022-09-12T22:17:05.457Z,85.52
2022-09-12T22:20:27.306Z,85.45
2022-09-12T22:24:08.027Z,85.70
2022-09-12T22:27:29.529Z,85.45
2022-09-12T22:30:51.812Z,85.24
2022-09-12T22:34:13.801Z,85.42
2022-09-12T22:37:35.947Z,85.29
2022-09-12T22:41:00.207Z,85.01
2022-09-12T22:44:21.597Z,85.22
2022-09-12T22:47:42.938Z,85.12
2022-09-12T22:51:04.965Z,85.14
2022-09-12T22:54:28.026Z,85.29
2022-09-12T22:57:51.402Z,85.13
2022-09-12T23:01:13.560Z,85.11
2022-09-12T23:04:35.114Z,85.20
2022-09-12T23:07:56.929Z,85.16
2022-09-12T23:11:21.480Z,85.01
2022-09-12T23:14:44.078Z,85.02
2022-09-12T23:18:05.647Z,84.98
2022-09-12T23:21:27.086Z,85.23
2022-09-12T23:24:48.523Z,85.09
2022-09-12T23:28:10.426Z,85.14
2022-09-12T23:31:35.271Z,85.32
2022-09-12T23:34:56.898Z,85.23
2022-09-12T23:38:18.766Z,85.11
2022-09-12T23:41:40.976Z,85.12
2022-09-12T23:45:02.813Z,85.12
2022-09-12T23:48:26.698Z,85.30
2022-09-12T23:51:48.144Z,85.22
2022-09-12T23:55:10.610Z,85.38
2022-09-12T23:58:33.082Z,84.75
